Time;durP1;ratioP1;P1;durP2;ratioP2;P2;SDS_P1;SDS_P2;PMS_P1;PMS_P2;Temp;Humidity;BMP_temperature;BMP_pressure;BME280_temperature;BME280_humidity;BME280_pressure;Samples;Min_cycle;Max_cycle;Signal;HPM_P1;HPM_P2
2021/08/02 00:00:08;;;;;;;1.35;1.25;;;;;;;29.28;34.98;97335.44;5056508;28;20508;-85
2021/08/02 00:02:38;;;;;;;1.00;1.00;;;;;;;29.80;34.40;97344.31;5062855;28;20029;-85
2021/08/02 00:05:07;;;;;;;1.10;1.00;;;;;;;29.53;34.29;97333.28;5069279;28;20068;-85
2021/08/02 00:07:37;;;;;;;1.40;0.98;;;;;;;29.55;34.78;97337.19;5062518;28;20029;-84
2021/08/02 00:10:14;;;;;;;2.25;1.00;;;;;;;29.05;35.30;97333.47;5057955;28;20040;-85
2021/08/02 00:12:55;;;;;;;1.40;1.30;;;;;;;28.98;35.60;97338.72;5052803;28;20044;-85
2021/08/02 00:15:21;;;;;;;1.65;1.55;;;;;;;28.86;35.83;97346.19;5060218;28;20080;-85
2021/08/02 00:17:48;;;;;;;1.02;1.00;;;;;;;29.26;35.26;97357.78;5056468;28;20033;-84
2021/08/02 00:20:18;;;;;;;1.52;1.42;;;;;;;29.39;34.57;97360.31;5057728;28;20465;-84
2021/08/02 00:22:45;;;;;;;1.23;1.10;;;;;;;29.80;34.35;97366.97;5058570;28;20075;-84
2021/08/02 00:25:12;;;;;;;1.20;1.10;;;;;;;29.89;34.12;97370.47;5054871;28;20025;-84
2021/08/02 00:27:38;;;;;;;1.73;1.63;;;;;;;29.61;34.55;97372.03;5065214;28;20028;-84
2021/08/02 00:30:07;;;;;;;1.08;1.08;;;;;;;29.55;34.68;97373.16;5062936;28;20138;-84
2021/08/02 00:32:35;;;;;;;3.25;1.50;;;;;;;30.05;33.76;97377.63;5059380;28;20033;-83
2021/08/02 00:35:02;;;;;;;1.35;1.25;;;;;;;30.19;33.57;97378.88;5055728;28;20082;-83
2021/08/02 00:37:38;;;;;;;1.30;1.20;;;;;;;30.24;33.54;97373.28;5061525;28;20107;-84
2021/08/02 00:40:31;;;;;;;3.30;1.55;;;;;;;29.48;34.76;97374.34;5055018;28;20066;-83
2021/08/02 00:43:29;;;;;;;3.30;1.63;;;;;;;29.23;34.57;97374.94;5057715;28;20492;-84
2021/08/02 00:45:58;;;;;;;1.50;1.40;;;;;;;29.13;35.35;97374.19;5053954;28;20535;-83
2021/08/02 00:48:31;;;;;;;1.40;1.30;;;;;;;29.48;34.50;97380.00;5072192;28;20119;-83
2021/08/02 00:51:01;;;;;;;1.45;1.35;;;;;;;30.32;33.10;97390.63;5054458;28;20079;-83
2021/08/02 00:53:28;;;;;;;1.30;1.20;;;;;;;30.08;33.31;97382.31;5059486;28;20146;-85
2021/08/02 00:56:00;;;;;;;1.58;1.20;;;;;;;30.04;33.42;97388.19;5067366;28;20033;-83
2021/08/02 00:58:29;;;;;;;1.33;1.23;;;;;;;29.81;33.82;97391.94;5054517;28;20086;-84
2021/08/02 01:00:57;;;;;;;1.10;1.00;;;;;;;30.35;32.77;97389.69;5060999;28;20028;-83
2021/08/02 01:03:23;;;;;;;1.52;1.10;;;;;;;29.32;34.35;97389.75;5060310;28;20041;-85
2021/08/02 01:05:52;;;;;;;1.83;1.67;;;;;;;28.16;36.29;97380.88;5060882;28;20093;-83
2021/08/02 01:08:27;;;;;;;1.40;1.30;;;;;;;27.98;36.74;97382.47;5056105;28;20025;-84
2021/08/02 01:10:56;;;;;;;1.50;1.35;;;;;;;28.84;35.52;97388.28;5056637;28;20029;-84
2021/08/02 01:13:24;;;;;;;1.83;1.67;;;;;;;28.42;35.97;97381.97;5059552;28;20404;-84
2021/08/02 01:15:53;;;;;;;2.33;2.13;;;;;;;28.41;36.05;97386.81;5059245;28;20058;-84
2021/08/02 01:18:21;;;;;;;3.97;2.42;;;;;;;28.68;35.12;97397.22;5062015;28;20032;-84
2021/08/02 01:20:53;;;;;;;2.08;1.88;;;;;;;28.19;35.65;97405.31;5054629;28;20036;-84
2021/08/02 01:23:21;;;;;;;3.15;2.20;;;;;;;28.65;35.32;97398.94;5057750;28;20037;-84
2021/08/02 01:25:56;;;;;;;3.75;2.25;;;;;;;27.48;37.36;97410.72;5055113;28;20033;-84
2021/08/02 01:28:25;;;;;;;2.33;2.22;;;;;;;28.74;35.25;97401.69;5057889;28;20098;-83
2021/08/02 01:30:52;;;;;;;1.95;1.30;;;;;;;29.05;34.81;97409.00;5059412;28;20029;-83
2021/08/02 01:33:20;;;;;;;2.63;2.40;;;;;;;28.89;34.51;97400.97;5056755;28;20033;-84
2021/08/02 01:35:47;;;;;;;1.90;1.58;;;;;;;28.38;35.67;97406.78;5065493;28;20094;-83
2021/08/02 01:38:14;;;;;;;2.35;2.03;;;;;;;28.60;34.80;97399.59;5064700;28;20037;-84
2021/08/02 01:40:41;;;;;;;2.78;2.55;;;;;;;27.71;36.48;97405.16;5057485;28;20400;-84
2021/08/02 01:43:08;;;;;;;2.70;2.40;;;;;;;27.49;36.48;97415.91;5057349;28;20065;-84
2021/08/02 01:45:51;;;;;;;4.03;2.50;;;;;;;27.62;36.31;97408.00;5061807;28;20044;-84
2021/08/02 01:48:33;;;;;;;7.25;3.65;;;;;;;28.02;35.89;97405.72;5059182;28;20094;-84
2021/08/02 01:51:12;;;;;;;2.70;2.50;;;;;;;27.63;36.28;97411.63;5060262;28;20036;-84
2021/08/02 01:53:59;;;;;;;2.83;2.28;;;;;;;28.41;35.33;97414.28;5061861;28;20040;-83
2021/08/02 01:56:33;;;;;;;3.67;2.60;;;;;;;28.73;34.23;97422.72;5063513;28;20036;-84
2021/08/02 01:59:02;;;;;;;2.80;2.30;;;;;;;29.43;33.33;97420.28;5056735;28;20025;-84
2021/08/02 02:01:28;;;;;;;3.33;2.55;;;;;;;29.55;33.30;97430.53;5057591;28;20033;-83
2021/08/02 02:03:57;;;;;;;3.80;2.17;;;;;;;29.79;32.46;97441.78;5061601;28;20039;-83
2021/08/02 02:06:31;;;;;;;3.78;2.00;;;;;;;30.21;32.18;97438.63;5059922;28;20029;-83
2021/08/02 02:09:04;;;;;;;3.72;2.47;;;;;;;30.04;32.24;97446.84;5061968;28;20052;-83
2021/08/02 02:11:32;;;;;;;2.28;2.08;;;;;;;30.46;31.88;97440.84;5056624;28;20044;-83
2021/08/02 02:14:03;;;;;;;2.13;2.03;;;;;;;30.49;31.32;97448.34;5058081;28;20082;-84
2021/08/02 02:16:36;;;;;;;2.90;2.15;;;;;;;31.09;30.50;97448.41;5069034;28;20507;-83
2021/08/02 02:19:04;;;;;;;3.10;2.50;;;;;;;31.22;30.15;97442.41;5064605;28;20511;-83
2021/08/02 02:21:32;;;;;;;2.72;2.03;;;;;;;31.37;30.14;97446.69;5061441;28;20029;-84
2021/08/02 02:24:00;;;;;;;2.10;1.90;;;;;;;31.34;30.05;97446.91;5059943;28;20025;-83
2021/08/02 02:26:32;;;;;;;2.40;2.20;;;;;;;31.52;29.77;97443.00;5057662;28;20035;-84
2021/08/02 02:29:04;;;;;;;3.38;2.72;;;;;;;30.86;30.72;97451.44;5059835;28;20132;-83
2021/08/02 02:31:34;;;;;;;3.67;2.70;;;;;;;30.76;30.90;97454.41;5056732;28;20063;-83
2021/08/02 02:34:03;;;;;;;4.00;1.77;;;;;;;31.37;30.07;97441.00;5061553;28;20025;-84
2021/08/02 02:36:29;;;;;;;2.33;2.10;;;;;;;31.41;29.76;97449.31;5058030;28;20021;-83
2021/08/02 02:38:57;;;;;;;2.40;2.20;;;;;;;31.77;29.10;97453.56;5065228;28;20028;-84
2021/08/02 02:41:24;;;;;;;2.30;2.13;;;;;;;31.95;28.98;97458.91;5061284;28;20500;-84
2021/08/02 02:43:51;;;;;;;1.70;1.60;;;;;;;31.86;29.24;97459.84;5070783;28;20025;-85
2021/08/02 02:46:19;;;;;;;2.33;2.15;;;;;;;31.18;29.98;97470.97;5063144;28;20119;-84
2021/08/02 02:48:47;;;;;;;4.13;3.17;;;;;;;30.71;30.76;97480.63;5066431;28;20137;-84
2021/08/02 02:51:14;;;;;;;2.33;1.95;;;;;;;31.04;30.56;97480.31;5061888;28;20056;-83
2021/08/02 02:53:41;;;;;;;6.82;4.57;;;;;;;30.08;31.84;97482.19;5063031;28;20063;-84
2021/08/02 02:56:11;;;;;;;4.32;3.92;;;;;;;29.92;32.25;97482.69;5064862;28;20037;-84
2021/08/02 02:58:40;;;;;;;8.75;5.25;;;;;;;29.33;33.12;97487.50;5061118;28;20424;-84
2021/08/02 03:01:07;;;;;;;4.70;4.00;;;;;;;29.55;33.02;97483.50;5062348;28;20036;-84
2021/08/02 03:03:37;;;;;;;7.70;5.15;;;;;;;29.35;33.02;97487.00;5065342;28;20396;-84
2021/08/02 03:06:05;;;;;;;6.00;4.40;;;;;;;29.21;33.22;97494.19;5059766;28;20503;-84
2021/08/02 03:08:34;;;;;;;5.13;4.63;;;;;;;29.87;32.32;97491.09;5061643;28;20036;-84
2021/08/02 03:11:02;;;;;;;5.28;4.75;;;;;;;30.05;32.04;97494.50;5068693;28;20503;-84
2021/08/02 03:13:28;;;;;;;5.30;4.80;;;;;;;30.10;31.49;97498.72;5059291;28;20029;-84
2021/08/02 03:15:54;;;;;;;5.03;4.53;;;;;;;30.15;31.71;97500.84;5057823;28;20036;-84
2021/08/02 03:18:20;;;;;;;7.57;4.72;;;;;;;30.01;32.05;97504.47;5059375;28;20024;-84
2021/08/02 03:20:46;;;;;;;4.88;4.38;;;;;;;30.27;31.44;97508.25;5059491;28;20039;-84
2021/08/02 03:23:35;;;;;;;5.75;4.70;;;;;;;29.85;32.34;97502.13;5065220;28;20040;-84
2021/08/02 03:26:09;;;;;;;4.25;3.78;;;;;;;30.63;31.02;97505.00;5059378;28;20029;-84
2021/08/02 03:28:47;;;;;;;4.40;4.03;;;;;;;30.85;30.77;97517.94;5059926;28;20040;-84
2021/08/02 03:31:25;;;;;;;4.18;3.67;;;;;;;30.93;30.42;97521.94;5056874;28;20037;-84
2021/08/02 03:33:54;;;;;;;3.53;3.22;;;;;;;31.31;30.09;97522.47;5063769;28;20579;-84
2021/08/02 03:36:22;;;;;;;3.70;3.33;;;;;;;31.67;29.55;97528.84;5061137;28;20025;-84
2021/08/02 03:38:50;;;;;;;3.70;3.40;;;;;;;31.64;29.23;97524.16;5065505;28;20029;-84
2021/08/02 03:41:20;;;;;;;5.30;4.00;;;;;;;31.27;30.12;97529.63;5059552;28;20029;-83
2021/08/02 03:43:47;;;;;;;4.25;3.90;;;;;;;31.30;29.91;97525.78;5063631;28;20033;-83
2021/08/02 03:46:14;;;;;;;4.18;3.40;;;;;;;31.09;30.27;97533.50;5060662;28;20057;-84
2021/08/02 03:48:41;;;;;;;4.97;4.43;;;;;;;30.84;30.69;97531.31;5061474;28;20044;-84
2021/08/02 03:51:07;;;;;;;7.57;4.43;;;;;;;30.52;31.16;97533.16;5054572;28;20061;-84
2021/08/02 03:53:45;;;;;;;4.63;4.10;;;;;;;30.67;30.92;97533.13;5059299;28;20434;-84
2021/08/02 03:56:14;;;;;;;4.25;3.70;;;;;;;31.15;30.37;97539.25;5054079;28;20541;-84
2021/08/02 03:58:41;;;;;;;5.47;4.22;;;;;;;30.97;30.68;97534.63;5064400;28;20483;-83
2021/08/02 04:01:08;;;;;;;5.38;4.60;;;;;;;30.90;30.51;97548.44;5059818;28;20041;-84
2021/08/02 04:03:34;;;;;;;4.97;3.92;;;;;;;30.54;31.24;97544.00;5061470;28;20028;-84
2021/08/02 04:06:01;;;;;;;6.93;4.70;;;;;;;30.23;31.66;97541.66;5058770;28;20114;-84
2021/08/02 04:08:28;;;;;;;4.65;3.50;;;;;;;30.40;31.68;97551.25;5061062;28;20028;-84
2021/08/02 04:10:54;;;;;;;5.43;4.93;;;;;;;30.15;31.77;97546.16;5059739;28;20029;-84
2021/08/02 04:13:20;;;;;;;4.55;4.07;;;;;;;30.48;31.55;97558.06;5059880;28;20037;-84
2021/08/02 04:15:47;;;;;;;3.65;3.35;;;;;;;30.63;31.31;97561.66;5062159;28;20033;-83
2021/08/02 04:18:13;;;;;;;4.00;3.60;;;;;;;30.23;31.79;97561.47;5060700;28;20033;-84
2021/08/02 04:20:40;;;;;;;4.57;3.08;;;;;;;30.76;31.18;97562.13;5057173;28;20108;-84
2021/08/02 04:23:07;;;;;;;3.97;3.67;;;;;;;30.78;31.02;97575.81;5056990;28;20036;-84
2021/08/02 04:25:33;;;;;;;4.82;3.13;;;;;;;31.12;30.47;97574.28;5056612;28;20056;-84
2021/08/02 04:27:59;;;;;;;4.03;3.63;;;;;;;31.35;29.88;97576.13;5063229;28;20025;-84
2021/08/02 04:30:25;;;;;;;3.10;2.80;;;;;;;31.76;29.51;97586.25;5063526;28;20025;-83
2021/08/02 04:32:51;;;;;;;3.05;2.85;;;;;;;31.51;29.62;97592.63;5065013;28;20071;-84
2021/08/02 04:35:17;;;;;;;2.63;2.30;;;;;;;31.58;29.61;97592.19;5066410;28;20388;-84
2021/08/02 04:37:43;;;;;;;2.50;2.30;;;;;;;31.65;29.76;97588.19;5065706;28;20033;-84
2021/08/02 04:40:10;;;;;;;2.58;2.38;;;;;;;31.94;29.18;97593.66;5055244;28;20079;-84
2021/08/02 04:42:37;;;;;;;3.28;2.05;;;;;;;31.70;29.47;97602.41;5060907;28;20036;-84
2021/08/02 04:45:05;;;;;;;2.17;1.98;;;;;;;31.79;29.14;97595.81;5062711;28;20115;-85
2021/08/02 04:47:31;;;;;;;2.05;1.83;;;;;;;31.48;29.83;97599.31;5061976;28;20036;-84
2021/08/02 04:49:57;;;;;;;2.60;2.40;;;;;;;31.27;29.78;97592.78;5054883;28;20037;-84
2021/08/02 04:52:23;;;;;;;1.90;1.77;;;;;;;31.07;30.20;97592.00;5066312;28;20028;-85
2021/08/02 04:54:50;;;;;;;2.05;1.77;;;;;;;30.70;30.52;97600.16;5062844;28;20081;-83
2021/08/02 04:57:16;;;;;;;3.53;2.88;;;;;;;30.21;31.55;97594.38;5054807;28;20027;-85
2021/08/02 04:59:42;;;;;;;1.67;1.55;;;;;;;30.53;31.40;97602.72;5054388;28;20044;-85
2021/08/02 05:02:09;;;;;;;4.40;2.08;;;;;;;30.79;30.88;97605.72;5058263;28;20037;-84
2021/08/02 05:04:36;;;;;;;2.15;1.90;;;;;;;30.22;31.52;97601.63;5057170;28;20029;-83
2021/08/02 05:07:02;;;;;;;2.38;1.88;;;;;;;30.11;31.90;97605.03;5054619;28;20103;-83
2021/08/02 05:09:28;;;;;;;1.55;1.45;;;;;;;30.82;30.85;97618.13;5061440;28;20621;-83
2021/08/02 05:11:54;;;;;;;2.10;1.50;;;;;;;31.23;30.08;97611.31;5062206;28;20075;-83
2021/08/02 05:14:20;;;;;;;1.80;1.60;;;;;;;31.05;30.01;97617.22;5059524;28;20061;-82
2021/08/02 05:16:46;;;;;;;2.40;1.50;;;;;;;30.55;30.89;97619.25;5062913;28;20032;-85
2021/08/02 05:19:13;;;;;;;4.30;2.38;;;;;;;30.35;31.11;97616.31;5053264;28;20033;-85
2021/08/02 05:21:39;;;;;;;1.65;1.55;;;;;;;30.47;30.99;97624.53;5057761;28;20404;-85
2021/08/02 05:24:05;;;;;;;2.78;1.92;;;;;;;29.97;31.57;97629.22;5058155;28;20041;-86
2021/08/02 05:26:32;;;;;;;2.33;2.05;;;;;;;30.17;31.45;97630.63;5069634;28;20068;-86
2021/08/02 05:28:58;;;;;;;1.80;1.70;;;;;;;30.44;30.86;97633.19;5070228;28;20033;-86
2021/08/02 05:31:24;;;;;;;3.17;1.17;;;;;;;30.84;30.31;97633.38;5070548;28;20392;-86
2021/08/02 05:33:50;;;;;;;1.63;1.52;;;;;;;30.75;30.21;97636.31;5071183;28;20055;-86
2021/08/02 05:36:19;;;;;;;2.67;1.08;;;;;;;31.23;29.58;97628.31;5071465;28;20117;-86
2021/08/02 05:38:45;;;;;;;0.73;0.73;;;;;;;31.01;29.95;97642.97;5057594;28;20029;-86
2021/08/02 05:41:11;;;;;;;1.80;1.10;;;;;;;30.86;30.23;97633.66;5054984;28;20032;-87
2021/08/02 05:43:37;;;;;;;1.33;1.23;;;;;;;30.15;31.50;97636.00;5058556;28;20029;-87
2021/08/02 05:46:04;;;;;;;2.40;1.05;;;;;;;30.66;30.52;97640.06;5066556;28;20138;-87
2021/08/02 05:48:30;;;;;;;1.30;1.08;;;;;;;30.05;31.26;97635.28;5057888;28;20056;-89
2021/08/02 05:50:56;;;;;;;0.90;0.90;;;;;;;30.55;30.75;97641.91;5067733;28;20060;-87
2021/08/02 05:53:22;;;;;;;1.80;0.93;;;;;;;30.65;30.51;97651.88;5070255;28;20068;-87
2021/08/02 05:55:48;;;;;;;1.13;0.90;;;;;;;30.67;30.67;97647.28;5063545;28;20043;-87
2021/08/02 05:58:15;;;;;;;1.23;1.00;;;;;;;30.94;30.34;97649.03;5064023;28;20025;-88
2021/08/02 06:00:41;;;;;;;2.33;0.80;;;;;;;31.08;29.99;97653.91;5070202;28;20103;-87
2021/08/02 06:03:07;;;;;;;0.95;0.95;;;;;;;31.30;29.76;97668.41;5067032;28;20108;-88
2021/08/02 06:05:33;;;;;;;1.95;0.70;;;;;;;31.30;29.14;97661.94;5054753;28;20032;-90
2021/08/02 06:07:59;;;;;;;0.75;0.60;;;;;;;31.40;29.34;97669.84;5059671;28;20032;-90
2021/08/02 06:10:25;;;;;;;0.90;0.90;;;;;;;31.43;29.37;97668.13;5062817;28;20116;-90
2021/08/02 06:12:51;;;;;;;0.98;0.95;;;;;;;31.34;29.51;97673.91;5053667;28;20049;-90
2021/08/02 06:15:17;;;;;;;1.08;0.65;;;;;;;31.61;28.72;97678.41;5065417;28;20063;-87
2021/08/02 06:17:44;;;;;;;0.70;0.70;;;;;;;31.40;29.48;97678.38;5076404;28;20029;-88
2021/08/02 06:20:10;;;;;;;0.60;0.60;;;;;;;31.40;29.58;97680.44;5064980;28;20157;-89
2021/08/02 06:22:37;;;;;;;0.70;0.57;;;;;;;32.06;28.53;97683.44;5075232;28;20020;-90
2021/08/02 06:25:03;;;;;;;0.50;0.50;;;;;;;32.33;28.18;97697.16;5070117;28;20032;-90
2021/08/02 06:27:30;;;;;;;0.50;0.50;;;;;;;32.62;27.46;97696.22;5075137;28;20036;-89
2021/08/02 06:29:58;;;;;;;0.50;0.50;;;;;;;32.55;27.57;97696.66;5073486;28;20041;-89
2021/08/02 06:32:25;;;;;;;0.40;0.40;;;;;;;32.60;27.83;97699.56;5059973;28;20086;-90
2021/08/02 06:34:51;;;;;;;0.50;0.50;;;;;;;32.41;27.68;97697.53;5065169;28;20033;-90
2021/08/02 06:37:17;;;;;;;2.17;1.38;;;;;;;32.51;27.93;97696.13;5071093;28;20468;-90
2021/08/02 06:39:43;;;;;;;0.50;0.40;;;;;;;32.94;27.92;97688.50;5068989;28;20029;-89
2021/08/02 06:42:10;;;;;;;0.85;0.68;;;;;;;32.68;28.08;97699.88;5073572;28;20028;-89
2021/08/02 06:44:37;;;;;;;0.60;0.52;;;;;;;32.94;27.77;97703.50;5058222;28;20039;-89
2021/08/02 06:47:03;;;;;;;0.43;0.43;;;;;;;32.58;27.94;97702.13;5060127;28;20044;-90
2021/08/02 06:49:29;;;;;;;0.60;0.60;;;;;;;32.77;27.86;97716.78;5063926;28;20042;-89
2021/08/02 06:51:55;;;;;;;0.50;0.50;;;;;;;32.86;27.90;97710.91;5067735;28;20032;-89
2021/08/02 06:54:21;;;;;;;0.40;0.40;;;;;;;33.12;28.04;97711.69;5060889;28;20081;-89
2021/08/02 06:56:47;;;;;;;0.63;0.60;;;;;;;33.02;27.85;97718.88;5059715;28;20029;-90
2021/08/02 06:59:13;;;;;;;0.50;0.50;;;;;;;33.19;27.29;97719.78;5058483;28;20542;-89
2021/08/02 07:01:39;;;;;;;0.57;0.57;;;;;;;33.22;27.21;97721.63;5055450;28;20037;-90
2021/08/02 07:04:05;;;;;;;0.65;0.40;;;;;;;33.47;27.38;97713.53;5062758;28;20056;-90
2021/08/02 07:06:32;;;;;;;0.70;0.70;;;;;;;33.44;26.96;97715.31;5066534;28;20545;-91
2021/08/02 07:08:58;;;;;;;3.08;1.10;;;;;;;32.50;28.18;97715.22;5061726;28;20595;-90
2021/08/02 07:11:25;;;;;;;1.80;0.63;;;;;;;32.44;28.18;97724.94;5062105;28;20040;-90
2021/08/02 07:13:53;;;;;;;0.70;0.40;;;;;;;32.32;28.91;97723.25;5062498;28;20040;-93
2021/08/02 07:16:23;;;;;;;0.70;0.40;;;;;;;32.78;28.10;97724.03;5061110;28;20067;-93
2021/08/02 07:18:51;;;;;;;1.00;0.52;;;;;;;33.23;27.65;97722.41;5061863;28;20159;-92
2021/08/02 07:21:21;;;;;;;0.70;0.70;;;;;;;32.74;28.45;97718.56;5068042;28;20033;-93
2021/08/02 07:23:47;;;;;;;0.85;0.50;;;;;;;33.19;27.66;97716.94;5068720;28;20036;-94
2021/08/02 07:26:14;;;;;;;2.05;0.70;;;;;;;32.62;28.43;97716.13;5066716;28;20028;-91
2021/08/02 07:28:41;;;;;;;1.30;1.08;;;;;;;32.93;27.98;97713.31;5067308;28;20082;-90
2021/08/02 07:31:07;;;;;;;0.80;0.50;;;;;;;33.36;27.75;97714.22;5064795;28;20507;-90
2021/08/02 07:33:33;;;;;;;0.43;0.43;;;;;;;33.58;27.20;97720.09;5057660;28;20033;-91
2021/08/02 07:35:59;;;;;;;0.60;0.60;;;;;;;33.69;27.08;97719.38;5063487;28;20107;-90
2021/08/02 07:38:26;;;;;;;0.70;0.60;;;;;;;33.42;27.58;97717.91;5063437;28;20396;-90
2021/08/02 07:40:52;;;;;;;0.60;0.60;;;;;;;32.99;27.92;97722.69;5069330;28;20024;-91
2021/08/02 07:43:19;;;;;;;0.50;0.50;;;;;;;33.14;27.97;97728.28;5063395;28;20033;-90
2021/08/02 07:45:45;;;;;;;0.70;0.60;;;;;;;32.82;28.58;97738.81;5062657;28;20049;-90
2021/08/02 07:48:11;;;;;;;0.60;0.60;;;;;;;32.91;28.83;97738.63;5061568;28;20101;-91
2021/08/02 07:50:37;;;;;;;0.82;0.60;;;;;;;33.26;28.00;97739.22;5059235;28;20048;-90
2021/08/02 07:53:03;;;;;;;0.93;0.80;;;;;;;33.01;28.13;97747.78;5062593;28;20044;-88
2021/08/02 07:55:29;;;;;;;0.80;0.80;;;;;;;33.21;28.57;97739.97;5076632;28;20098;-89
2021/08/02 07:57:56;;;;;;;1.85;0.80;;;;;;;32.82;28.83;97749.41;5063347;28;20043;-90
2021/08/02 08:00:22;;;;;;;0.88;0.70;;;;;;;32.98;29.21;97755.25;5070169;28;20060;-90
2021/08/02 08:02:48;;;;;;;0.85;0.80;;;;;;;32.38;29.42;97747.63;5062900;28;20032;-90
2021/08/02 08:05:15;;;;;;;0.77;0.77;;;;;;;32.63;29.60;97763.16;5062389;28;20024;-89
2021/08/02 08:07:52;;;;;;;1.75;1.27;;;;;;;32.87;28.96;97758.00;5065033;28;20020;-88
2021/08/02 08:10:20;;;;;;;1.50;0.60;;;;;;;33.54;28.60;97756.53;5063572;28;20120;-91
2021/08/02 08:12:47;;;;;;;1.33;0.90;;;;;;;33.43;28.19;97759.28;5058025;28;20029;-90
2021/08/02 08:15:14;;;;;;;1.38;0.80;;;;;;;33.40;28.47;97752.53;5061801;28;20119;-88
2021/08/02 08:17:41;;;;;;;1.35;0.90;;;;;;;33.79;27.93;97760.63;5061568;28;20028;-92
2021/08/02 08:20:10;;;;;;;0.68;0.68;;;;;;;33.91;28.56;97762.25;5069809;28;20430;-90
2021/08/02 08:22:36;;;;;;;0.80;0.80;;;;;;;33.50;28.27;97767.38;5069927;28;20028;-88
2021/08/02 08:25:03;;;;;;;0.90;0.80;;;;;;;33.37;28.49;97770.63;5093845;28;20039;-90
2021/08/02 08:27:29;;;;;;;0.90;0.70;;;;;;;33.84;28.67;97774.13;5090728;28;20488;-89
2021/08/02 08:29:55;;;;;;;3.22;1.60;;;;;;;33.00;28.63;97772.59;5066158;28;20036;-90
2021/08/02 08:32:21;;;;;;;0.90;0.80;;;;;;;33.81;28.26;97781.59;5072260;28;20071;-90
2021/08/02 08:34:47;;;;;;;1.95;0.95;;;;;;;33.86;28.32;97774.38;5059415;28;20055;-90
2021/08/02 08:37:13;;;;;;;0.93;0.93;;;;;;;33.10;29.30;97790.31;5065782;28;20392;-89
2021/08/02 08:39:39;;;;;;;1.10;1.00;;;;;;;33.88;29.03;97783.19;5072712;28;20028;-89
2021/08/02 08:42:07;;;;;;;0.80;0.80;;;;;;;34.47;27.59;97794.69;5068384;28;20095;-89
2021/08/02 08:44:34;;;;;;;0.98;0.70;;;;;;;34.63;27.99;97796.84;5073315;28;20040;-90
2021/08/02 08:47:01;;;;;;;1.10;1.00;;;;;;;34.23;27.49;97797.94;5070129;28;20119;-89
2021/08/02 08:49:27;;;;;;;2.15;0.90;;;;;;;33.93;28.47;97788.16;5067283;28;20033;-91
2021/08/02 08:51:53;;;;;;;1.08;0.98;;;;;;;33.81;28.45;97801.53;5063729;28;20039;-93
2021/08/02 08:54:19;;;;;;;0.98;0.98;;;;;;;33.93;28.37;97796.69;5064297;28;20032;-91
2021/08/02 08:56:46;;;;;;;0.80;0.80;;;;;;;34.12;28.09;97800.72;5049332;28;20044;-93
2021/08/02 08:59:13;;;;;;;0.80;0.80;;;;;;;34.87;27.30;97799.25;5067046;28;20585;-92
2021/08/02 09:01:40;;;;;;;1.17;0.80;;;;;;;34.79;27.19;97792.47;5062820;28;20089;-94
2021/08/02 09:04:07;;;;;;;0.70;0.70;;;;;;;35.62;27.30;97781.94;5070610;28;20358;-92
2021/08/02 09:06:53;;;;;;;0.70;0.70;;;;;;;35.60;26.16;97786.63;5066488;28;20036;-90
2021/08/02 09:09:33;;;;;;;0.80;0.80;;;;;;;35.75;27.45;97772.84;5061776;28;20028;-91
2021/08/02 09:12:07;;;;;;;0.60;0.60;;;;;;;36.05;26.53;97771.00;5063557;28;20040;-91
2021/08/02 09:14:33;;;;;;;1.48;0.80;;;;;;;35.93;26.17;97778.81;5063620;28;20120;-92
2021/08/02 09:17:00;;;;;;;0.88;0.80;;;;;;;34.96;26.45;97779.03;5065072;28;20109;-91
2021/08/02 09:19:39;;;;;;;0.93;0.90;;;;;;;33.69;27.00;97782.03;5058036;28;20028;-91
2021/08/02 09:22:05;;;;;;;0.88;0.88;;;;;;;33.02;29.22;97774.97;5060441;28;20035;-93
2021/08/02 09:24:33;;;;;;;1.00;0.90;;;;;;;33.31;28.29;97774.72;5060971;28;20062;-90
2021/08/02 09:26:59;;;;;;;1.10;1.00;;;;;;;33.98;29.12;97762.53;5064477;28;20029;-92
2021/08/02 09:29:34;;;;;;;1.02;0.70;;;;;;;34.64;27.59;97753.53;5057424;28;20067;-89
2021/08/02 09:32:07;;;;;;;0.85;0.80;;;;;;;34.85;26.93;97756.94;5064231;28;20118;-89
2021/08/02 09:34:43;;;;;;;0.90;0.90;;;;;;;34.49;26.49;97746.47;5077355;28;20554;-89
2021/08/02 09:37:23;;;;;;;0.98;0.90;;;;;;;34.18;26.79;97760.84;5056605;28;20566;-90
2021/08/02 09:39:53;;;;;;;1.02;0.93;;;;;;;34.10;27.12;97762.63;5061784;28;20388;-89
2021/08/02 09:42:26;;;;;;;0.77;0.77;;;;;;;34.40;26.55;97763.81;5062985;28;20483;-89
2021/08/02 09:45:02;;;;;;;1.13;1.02;;;;;;;34.03;26.61;97778.13;5061738;28;20037;-89
2021/08/02 09:47:29;;;;;;;1.08;0.98;;;;;;;33.91;27.09;97777.25;5074728;28;20029;-89
2021/08/02 09:49:56;;;;;;;0.80;0.80;;;;;;;35.02;26.88;97776.97;5072774;28;20021;-90
2021/08/02 09:52:22;;;;;;;1.10;1.00;;;;;;;34.16;26.50;97769.13;5079539;28;20039;-88
2021/08/02 09:54:58;;;;;;;0.90;0.90;;;;;;;33.83;26.67;97783.94;5064250;28;20029;-88
2021/08/02 09:57:25;;;;;;;0.90;0.90;;;;;;;33.77;27.34;97783.88;5081224;28;20477;-90
2021/08/02 09:59:51;;;;;;;1.83;1.00;;;;;;;33.60;27.39;97790.75;5062387;28;20060;-88
2021/08/02 10:02:18;;;;;;;0.98;0.98;;;;;;;34.27;27.23;97791.97;5069040;28;20047;-91
2021/08/02 10:04:45;;;;;;;0.82;0.82;;;;;;;34.21;26.00;97783.41;5072252;28;20400;-88
2021/08/02 10:07:13;;;;;;;0.82;0.82;;;;;;;33.87;27.16;97790.16;5058083;28;20033;-87
2021/08/02 10:09:39;;;;;;;1.10;1.00;;;;;;;33.85;27.14;97782.13;5065667;28;20103;-87
2021/08/02 10:12:06;;;;;;;0.98;0.90;;;;;;;34.55;26.75;97788.00;5061039;28;20028;-88
2021/08/02 10:14:33;;;;;;;0.77;0.77;;;;;;;35.12;25.74;97784.00;5063090;28;20076;-90
2021/08/02 10:17:10;;;;;;;1.20;0.65;;;;;;;34.96;25.78;97794.06;5069232;28;20017;-90
2021/08/02 10:19:38;;;;;;;0.80;0.70;;;;;;;34.19;26.98;97796.63;5070216;28;20033;-89
2021/08/02 10:22:05;;;;;;;0.70;0.70;;;;;;;34.49;26.47;97798.56;5067308;28;20094;-88
2021/08/02 10:24:32;;;;;;;0.80;0.80;;;;;;;34.33;28.17;97798.50;5062174;28;20024;-87
2021/08/02 10:26:59;;;;;;;0.70;0.70;;;;;;;35.59;25.28;97797.28;5071383;28;20032;-87
2021/08/02 10:29:43;;;;;;;0.70;0.70;;;;;;;35.72;24.84;97794.69;5075454;28;20028;-88
2021/08/02 10:32:27;;;;;;;0.70;0.70;;;;;;;36.44;24.00;97800.22;5075757;28;20050;-89
2021/08/02 10:34:56;;;;;;;0.80;0.80;;;;;;;37.16;23.10;97794.16;5077740;28;20056;-90
2021/08/02 10:37:33;;;;;;;5.75;1.00;;;;;;;36.67;23.23;97792.34;5074406;28;20037;-88
2021/08/02 10:40:08;;;;;;;0.90;0.90;;;;;;;36.99;23.21;97796.38;5071593;28;20028;-89
2021/08/02 10:42:48;;;;;;;1.17;1.08;;;;;;;37.26;23.74;97800.34;5082916;28;20481;-91
2021/08/02 10:45:15;;;;;;;1.70;1.60;;;;;;;37.18;23.25;97796.53;5067123;28;20041;-90
2021/08/02 10:47:42;;;;;;;2.00;1.05;;;;;;;37.51;22.61;97792.66;5081947;28;20033;-86
2021/08/02 10:50:10;;;;;;;0.80;0.80;;;;;;;36.88;23.80;97796.41;5065884;28;20070;-88
2021/08/02 10:52:36;;;;;;;0.82;0.80;;;;;;;35.94;24.13;97783.19;5067838;28;20444;-88
2021/08/02 10:55:14;;;;;;;1.20;0.77;;;;;;;35.89;24.37;97795.44;5058739;28;20412;-87
2021/08/02 10:57:40;;;;;;;0.70;0.70;;;;;;;36.18;23.51;97788.38;5063285;28;20239;-89
2021/08/02 11:00:18;;;;;;;0.68;0.68;;;;;;;36.98;23.43;97789.09;5059099;28;20400;-90
2021/08/02 11:02:54;;;;;;;0.80;0.80;;;;;;;36.93;23.52;97783.38;5056337;28;20141;-91
2021/08/02 11:05:22;;;;;;;0.55;0.55;;;;;;;36.41;23.47;97774.78;5069101;28;20037;-89
2021/08/02 11:07:48;;;;;;;0.60;0.60;;;;;;;36.21;23.45;97775.09;5061600;28;20154;-86
2021/08/02 11:10:17;;;;;;;0.50;0.50;;;;;;;36.48;24.21;97774.25;5065758;28;20039;-86
2021/08/02 11:12:46;;;;;;;3.30;0.70;;;;;;;36.55;22.41;97774.47;5056058;28;20037;-86
2021/08/02 11:15:12;;;;;;;0.73;0.60;;;;;;;36.65;23.21;97770.00;5063829;28;20033;-87
2021/08/02 11:17:48;;;;;;;0.80;0.80;;;;;;;36.63;23.15;97769.75;5063702;28;20028;-86
2021/08/02 11:20:14;;;;;;;0.52;0.52;;;;;;;36.46;22.75;97768.25;5067311;28;20450;-86
2021/08/02 11:22:58;;;;;;;0.90;0.70;;;;;;;36.38;23.39;97770.91;5064391;28;20090;-86
2021/08/02 11:25:25;;;;;;;0.60;0.60;;;;;;;36.53;22.70;97776.28;5067504;28;20487;-87
2021/08/02 11:27:56;;;;;;;0.80;0.60;;;;;;;36.81;22.98;97771.19;5067459;28;20051;-86
2021/08/02 11:30:24;;;;;;;0.55;0.50;;;;;;;36.55;22.58;97773.72;5065729;28;20024;-85
2021/08/02 11:32:51;;;;;;;0.88;0.60;;;;;;;36.41;23.68;97778.41;5062192;28;20032;-85
2021/08/02 11:35:17;;;;;;;0.70;0.70;;;;;;;35.73;23.52;97770.50;5062069;28;20039;-85
2021/08/02 11:37:50;;;;;;;0.75;0.68;;;;;;;36.59;23.29;97774.19;5070452;28;20035;-85
2021/08/02 11:40:18;;;;;;;1.48;0.93;;;;;;;36.86;21.88;97773.25;5059617;28;20040;-88